sensor_id;sensor_type;location;lat;lon;timestamp;pressure;altitude;pressure_sealevel;temperature;humidity
54556;BME280;57291;37.520;15.106;2023-01-31T00:01:36;101486.88;;;8.03;72.52
54556;BME280;57291;37.520;15.106;2023-01-31T00:04:09;101480.59;;;7.97;72.16
54556;BME280;57291;37.520;15.106;2023-01-31T00:06:42;101484.06;;;7.93;72.40
54556;BME280;57291;37.520;15.106;2023-01-31T00:09:11;101476.47;;;7.90;72.79
54556;BME280;57291;37.520;15.106;2023-01-31T00:11:39;101480.22;;;7.89;72.89
54556;BME280;57291;37.520;15.106;2023-01-31T00:14:07;101471.34;;;7.93;73.26
54556;BME280;57291;37.520;15.106;2023-01-31T00:16:36;101480.88;;;8.01;72.91
54556;BME280;57291;37.520;15.106;2023-01-31T00:19:04;101475.50;;;8.06;72.89
54556;BME280;57291;37.520;15.106;2023-01-31T00:21:31;101475.50;;;8.06;72.51
54556;BME280;57291;37.520;15.106;2023-01-31T00:23:59;101469.81;;;8.08;72.71
54556;BME280;57291;37.520;15.106;2023-01-31T00:26:31;101467.41;;;8.11;72.44
54556;BME280;57291;37.520;15.106;2023-01-31T00:29:00;101454.16;;;8.10;72.50
54556;BME280;57291;37.520;15.106;2023-01-31T00:31:29;101445.47;;;8.08;72.43
54556;BME280;57291;37.520;15.106;2023-01-31T00:33:57;101447.59;;;8.06;72.43
54556;BME280;57291;37.520;15.106;2023-01-31T00:36:28;101443.56;;;8.03;72.79
54556;BME280;57291;37.520;15.106;2023-01-31T00:38:57;101451.09;;;8.01;72.92
54556;BME280;57291;37.520;15.106;2023-01-31T00:41:27;101441.34;;;8.00;72.83
54556;BME280;57291;37.520;15.106;2023-01-31T00:43:59;101442.41;;;7.99;73.04
54556;BME280;57291;37.520;15.106;2023-01-31T00:46:27;101443.28;;;8.05;72.99
54556;BME280;57291;37.520;15.106;2023-01-31T00:48:54;101440.34;;;8.11;72.64
54556;BME280;57291;37.520;15.106;2023-01-31T00:51:25;101443.03;;;8.06;72.13
54556;BME280;57291;37.520;15.106;2023-01-31T00:53:53;101443.56;;;8.03;72.25
54556;BME280;57291;37.520;15.106;2023-01-31T00:56:22;101448.47;;;8.11;70.86
54556;BME280;57291;37.520;15.106;2023-01-31T00:58:51;101449.31;;;8.17;70.44
54556;BME280;57291;37.520;15.106;2023-01-31T01:01:28;101443.09;;;8.16;70.04
54556;BME280;57291;37.520;15.106;2023-01-31T01:03:56;101443.56;;;8.08;70.28
54556;BME280;57291;37.520;15.106;2023-01-31T01:06:23;101437.28;;;8.03;70.50
54556;BME280;57291;37.520;15.106;2023-01-31T01:08:51;101438.03;;;7.93;70.69
54556;BME280;57291;37.520;15.106;2023-01-31T01:11:24;101430.72;;;7.88;70.48
54556;BME280;57291;37.520;15.106;2023-01-31T01:13:51;101427.22;;;7.93;70.54
54556;BME280;57291;37.520;15.106;2023-01-31T01:16:25;101418.78;;;7.89;70.76
54556;BME280;57291;37.520;15.106;2023-01-31T01:18:53;101407.97;;;7.89;70.42
54556;BME280;57291;37.520;15.106;2023-01-31T01:21:26;101392.88;;;7.93;69.75
54556;BME280;57291;37.520;15.106;2023-01-31T01:23:59;101392.66;;;8.05;67.98
54556;BME280;57291;37.520;15.106;2023-01-31T01:26:29;101395.41;;;8.10;67.48
54556;BME280;57291;37.520;15.106;2023-01-31T01:28:59;101389.69;;;8.12;67.79
54556;BME280;57291;37.520;15.106;2023-01-31T01:31:29;101376.44;;;8.10;67.84
54556;BME280;57291;37.520;15.106;2023-01-31T01:33:59;101385.03;;;8.02;67.77
54556;BME280;57291;37.520;15.106;2023-01-31T01:36:27;101364.94;;;7.88;68.37
54556;BME280;57291;37.520;15.106;2023-01-31T01:38:55;101362.72;;;7.80;69.37
54556;BME280;57291;37.520;15.106;2023-01-31T01:41:23;101365.34;;;7.69;69.87
54556;BME280;57291;37.520;15.106;2023-01-31T01:43:56;101361.53;;;7.60;71.02
54556;BME280;57291;37.520;15.106;2023-01-31T01:46:29;101372.59;;;7.59;71.53
54556;BME280;57291;37.520;15.106;2023-01-31T01:52:02;101377.41;;;7.51;72.08
54556;BME280;57291;37.520;15.106;2023-01-31T01:54:49;101373.84;;;7.46;72.40
54556;BME280;57291;37.520;15.106;2023-01-31T01:57:24;101371.41;;;7.44;72.88
54556;BME280;57291;37.520;15.106;2023-01-31T02:00:08;101375.00;;;7.55;73.11
54556;BME280;57291;37.520;15.106;2023-01-31T02:02:44;101381.81;;;7.63;72.94
54556;BME280;57291;37.520;15.106;2023-01-31T02:05:16;101382.66;;;7.68;72.64
54556;BME280;57291;37.520;15.106;2023-01-31T02:07:46;101380.78;;;7.69;72.66
54556;BME280;57291;37.520;15.106;2023-01-31T02:10:17;101373.47;;;7.69;72.58
54556;BME280;57291;37.520;15.106;2023-01-31T02:12:46;101374.59;;;7.73;72.34
54556;BME280;57291;37.520;15.106;2023-01-31T02:15:13;101372.44;;;7.75;72.34
54556;BME280;57291;37.520;15.106;2023-01-31T02:17:41;101368.91;;;7.75;72.71
54556;BME280;57291;37.520;15.106;2023-01-31T02:23:08;101376.41;;;8.05;71.12
54556;BME280;57291;37.520;15.106;2023-01-31T02:28:38;101379.44;;;8.14;70.69
54556;BME280;57291;37.520;15.106;2023-01-31T02:37:19;101375.66;;;8.15;69.94
54556;BME280;57291;37.520;15.106;2023-01-31T02:45:49;101386.94;;;8.02;70.51
54556;BME280;57291;37.520;15.106;2023-01-31T02:51:29;101372.88;;;7.99;69.15
54556;BME280;57291;37.520;15.106;2023-01-31T02:56:33;101363.59;;;7.90;68.48
54556;BME280;57291;37.520;15.106;2023-01-31T02:59:17;101361.97;;;7.89;68.29
54556;BME280;57291;37.520;15.106;2023-01-31T03:01:56;101367.09;;;7.86;68.46
54556;BME280;57291;37.520;15.106;2023-01-31T03:04:29;101368.44;;;7.83;67.87
54556;BME280;57291;37.520;15.106;2023-01-31T03:07:25;101360.56;;;7.82;68.04
54556;BME280;57291;37.520;15.106;2023-01-31T03:19:25;101359.06;;;8.01;67.16
54556;BME280;57291;37.520;15.106;2023-01-31T03:21:53;101347.44;;;8.06;67.68
54556;BME280;57291;37.520;15.106;2023-01-31T03:24:25;101346.88;;;7.98;68.55
54556;BME280;57291;37.520;15.106;2023-01-31T03:26:57;101336.84;;;7.94;69.57
54556;BME280;57291;37.520;15.106;2023-01-31T03:29:31;101321.34;;;7.84;70.35
54556;BME280;57291;37.520;15.106;2023-01-31T03:32:07;101315.91;;;7.79;70.84
54556;BME280;57291;37.520;15.106;2023-01-31T03:34:35;101299.09;;;7.72;70.91
54556;BME280;57291;37.520;15.106;2023-01-31T03:40:09;101311.75;;;7.61;72.01
54556;BME280;57291;37.520;15.106;2023-01-31T03:42:46;101306.50;;;7.49;71.99
54556;BME280;57291;37.520;15.106;2023-01-31T03:45:29;101291.53;;;7.37;72.65
54556;BME280;57291;37.520;15.106;2023-01-31T03:48:01;101301.03;;;7.34;72.85
54556;BME280;57291;37.520;15.106;2023-01-31T03:50:39;101298.56;;;7.33;72.95
54556;BME280;57291;37.520;15.106;2023-01-31T03:55:45;101316.31;;;7.23;72.11
54556;BME280;57291;37.520;15.106;2023-01-31T03:58:18;101319.25;;;7.17;71.80
54556;BME280;57291;37.520;15.106;2023-01-31T04:00:47;101321.91;;;7.12;71.60
54556;BME280;57291;37.520;15.106;2023-01-31T04:03:34;101330.25;;;7.05;71.63
54556;BME280;57291;37.520;15.106;2023-01-31T04:06:03;101332.94;;;7.05;71.32
54556;BME280;57291;37.520;15.106;2023-01-31T04:08:33;101332.13;;;7.04;71.37
54556;BME280;57291;37.520;15.106;2023-01-31T04:11:09;101329.16;;;7.06;71.51
54556;BME280;57291;37.520;15.106;2023-01-31T04:13:37;101343.56;;;7.17;71.63
54556;BME280;57291;37.520;15.106;2023-01-31T04:16:05;101354.19;;;7.23;71.38
54556;BME280;57291;37.520;15.106;2023-01-31T04:18:32;101353.75;;;7.37;70.77
54556;BME280;57291;37.520;15.106;2023-01-31T04:21:03;101345.38;;;7.38;70.64
54556;BME280;57291;37.520;15.106;2023-01-31T04:23:31;101367.03;;;7.43;70.75
54556;BME280;57291;37.520;15.106;2023-01-31T04:25:58;101366.81;;;7.50;70.06
54556;BME280;57291;37.520;15.106;2023-01-31T04:28:25;101372.28;;;7.55;69.54
54556;BME280;57291;37.520;15.106;2023-01-31T04:30:53;101367.81;;;7.71;68.63
54556;BME280;57291;37.520;15.106;2023-01-31T04:33:21;101376.81;;;7.82;68.11
54556;BME280;57291;37.520;15.106;2023-01-31T04:35:51;101372.88;;;7.99;66.73
54556;BME280;57291;37.520;15.106;2023-01-31T04:38:18;101371.06;;;8.20;65.60
54556;BME280;57291;37.520;15.106;2023-01-31T04:40:45;101371.31;;;8.19;65.35
54556;BME280;57291;37.520;15.106;2023-01-31T04:43:13;101379.72;;;8.17;65.81
54556;BME280;57291;37.520;15.106;2023-01-31T04:45:40;101384.94;;;8.29;64.58
54556;BME280;57291;37.520;15.106;2023-01-31T04:48:07;101382.75;;;8.31;64.59
54556;BME280;57291;37.520;15.106;2023-01-31T04:50:34;101374.13;;;8.34;64.83
54556;BME280;57291;37.520;15.106;2023-01-31T04:53:02;101382.34;;;8.50;64.11
54556;BME280;57291;37.520;15.106;2023-01-31T04:55:30;101387.25;;;8.53;64.46
54556;BME280;57291;37.520;15.106;2023-01-31T04:57:58;101377.50;;;8.57;64.44
54556;BME280;57291;37.520;15.106;2023-01-31T05:00:25;101370.44;;;8.56;65.06
54556;BME280;57291;37.520;15.106;2023-01-31T05:02:52;101373.41;;;8.49;65.22
54556;BME280;57291;37.520;15.106;2023-01-31T05:05:20;101376.13;;;8.54;65.40
54556;BME280;57291;37.520;15.106;2023-01-31T05:07:47;101371.78;;;8.58;65.29
54556;BME280;57291;37.520;15.106;2023-01-31T05:10:14;101358.53;;;8.62;65.91
54556;BME280;57291;37.520;15.106;2023-01-31T05:12:41;101334.72;;;8.74;66.42
54556;BME280;57291;37.520;15.106;2023-01-31T05:15:09;101346.66;;;8.83;66.26
54556;BME280;57291;37.520;15.106;2023-01-31T05:17:37;101346.13;;;8.91;67.29
54556;BME280;57291;37.520;15.106;2023-01-31T05:20:05;101352.38;;;8.97;67.69
54556;BME280;57291;37.520;15.106;2023-01-31T05:22:32;101330.97;;;8.85;68.82
54556;BME280;57291;37.520;15.106;2023-01-31T05:25:00;101306.28;;;8.77;68.71
54556;BME280;57291;37.520;15.106;2023-01-31T05:27:27;101322.25;;;8.78;68.30
54556;BME280;57291;37.520;15.106;2023-01-31T05:29:54;101319.53;;;8.78;68.35
54556;BME280;57291;37.520;15.106;2023-01-31T05:32:21;101313.81;;;8.64;70.07
54556;BME280;57291;37.520;15.106;2023-01-31T05:34:48;101332.22;;;8.47;71.46
54556;BME280;57291;37.520;15.106;2023-01-31T05:37:15;101325.31;;;8.24;72.65
54556;BME280;57291;37.520;15.106;2023-01-31T05:39:42;101338.25;;;8.12;72.85
54556;BME280;57291;37.520;15.106;2023-01-31T05:42:09;101346.88;;;7.98;73.29
54556;BME280;57291;37.520;15.106;2023-01-31T05:44:37;101347.91;;;7.87;74.09
54556;BME280;57291;37.520;15.106;2023-01-31T05:47:04;101351.88;;;7.74;74.16
54556;BME280;57291;37.520;15.106;2023-01-31T05:49:31;101348.00;;;7.65;74.51
54556;BME280;57291;37.520;15.106;2023-01-31T05:51:59;101354.97;;;7.51;75.21
54556;BME280;57291;37.520;15.106;2023-01-31T05:54:27;101373.31;;;7.44;75.08
54556;BME280;57291;37.520;15.106;2023-01-31T05:56:54;101375.34;;;7.32;75.21
54556;BME280;57291;37.520;15.106;2023-01-31T05:59:21;101371.47;;;7.22;75.33
54556;BME280;57291;37.520;15.106;2023-01-31T06:01:49;101378.81;;;7.27;76.54
54556;BME280;57291;37.520;15.106;2023-01-31T06:04:17;101379.13;;;7.31;76.21
54556;BME280;57291;37.520;15.106;2023-01-31T06:06:44;101371.03;;;7.31;76.13
54556;BME280;57291;37.520;15.106;2023-01-31T06:09:11;101362.94;;;7.36;75.56
54556;BME280;57291;37.520;15.106;2023-01-31T06:11:38;101370.59;;;7.44;75.05
54556;BME280;57291;37.520;15.106;2023-01-31T06:14:05;101369.38;;;7.62;74.93
54556;BME280;57291;37.520;15.106;2023-01-31T06:16:34;101371.69;;;7.85;74.35
54556;BME280;57291;37.520;15.106;2023-01-31T06:19:01;101384.53;;;8.05;72.50
54556;BME280;57291;37.520;15.106;2023-01-31T06:21:28;101367.31;;;8.32;71.15
54556;BME280;57291;37.520;15.106;2023-01-31T06:23:56;101371.03;;;8.78;69.34
54556;BME280;57291;37.520;15.106;2023-01-31T06:26:24;101358.91;;;9.37;68.80
54556;BME280;57291;37.520;15.106;2023-01-31T06:28:51;101366.41;;;10.06;67.08
54556;BME280;57291;37.520;15.106;2023-01-31T06:31:18;101380.28;;;10.75;65.13
54556;BME280;57291;37.520;15.106;2023-01-31T06:33:45;101393.09;;;11.53;63.27
54556;BME280;57291;37.520;15.106;2023-01-31T06:36:15;101392.59;;;12.09;59.95
54556;BME280;57291;37.520;15.106;2023-01-31T06:38:49;101380.28;;;12.36;55.47
54556;BME280;57291;37.520;15.106;2023-01-31T06:41:18;101370.25;;;12.07;54.63
54556;BME280;57291;37.520;15.106;2023-01-31T06:43:45;101376.81;;;11.77;56.26
54556;BME280;57291;37.520;15.106;2023-01-31T06:46:12;101380.25;;;11.59;56.88
54556;BME280;57291;37.520;15.106;2023-01-31T06:48:39;101391.19;;;11.54;57.75
54556;BME280;57291;37.520;15.106;2023-01-31T06:51:06;101383.91;;;11.44;58.07
54556;BME280;57291;37.520;15.106;2023-01-31T06:53:33;101378.00;;;11.32;58.42
54556;BME280;57291;37.520;15.106;2023-01-31T06:56:00;101388.16;;;11.26;58.82
54556;BME280;57291;37.520;15.106;2023-01-31T06:58:27;101391.69;;;11.21;58.89
54556;BME280;57291;37.520;15.106;2023-01-31T07:00:54;101386.50;;;11.25;59.07
54556;BME280;57291;37.520;15.106;2023-01-31T07:03:22;101387.59;;;11.24;59.11
54556;BME280;57291;37.520;15.106;2023-01-31T07:05:49;101402.50;;;11.32;59.54
54556;BME280;57291;37.520;15.106;2023-01-31T07:08:16;101414.22;;;11.32;59.00
54556;BME280;57291;37.520;15.106;2023-01-31T07:10:43;101397.34;;;11.35;59.16
54556;BME280;57291;37.520;15.106;2023-01-31T07:13:11;101394.88;;;11.34;59.49
54556;BME280;57291;37.520;15.106;2023-01-31T07:15:38;101384.00;;;11.34;59.33
54556;BME280;57291;37.520;15.106;2023-01-31T07:18:05;101395.13;;;11.37;59.64
54556;BME280;57291;37.520;15.106;2023-01-31T07:20:33;101393.59;;;11.26;59.50
54556;BME280;57291;37.520;15.106;2023-01-31T07:23:00;101406.69;;;11.19;59.83
54556;BME280;57291;37.520;15.106;2023-01-31T07:25:27;101409.34;;;11.29;60.10
54556;BME280;57291;37.520;15.106;2023-01-31T07:27:59;101406.31;;;11.36;59.78
54556;BME280;57291;37.520;15.106;2023-01-31T07:30:26;101410.31;;;11.43;59.91
54556;BME280;57291;37.520;15.106;2023-01-31T07:32:53;101404.31;;;11.46;59.34
54556;BME280;57291;37.520;15.106;2023-01-31T07:35:20;101402.84;;;11.59;59.71
54556;BME280;57291;37.520;15.106;2023-01-31T07:37:51;101397.31;;;11.69;59.72
54556;BME280;57291;37.520;15.106;2023-01-31T07:40:19;101401.03;;;11.79;59.24
54556;BME280;57291;37.520;15.106;2023-01-31T07:42:46;101409.16;;;11.84;58.96
54556;BME280;57291;37.520;15.106;2023-01-31T07:45:14;101406.41;;;11.89;58.54
54556;BME280;57291;37.520;15.106;2023-01-31T07:47:50;101410.72;;;11.95;57.93
54556;BME280;57291;37.520;15.106;2023-01-31T07:50:18;101410.72;;;11.95;57.20
54556;BME280;57291;37.520;15.106;2023-01-31T07:52:45;101404.97;;;11.96;57.04
54556;BME280;57291;37.520;15.106;2023-01-31T07:55:15;101413.16;;;11.96;56.65
54556;BME280;57291;37.520;15.106;2023-01-31T07:57:42;101405.16;;;12.05;56.86
54556;BME280;57291;37.520;15.106;2023-01-31T08:00:09;101411.91;;;12.13;56.44
54556;BME280;57291;37.520;15.106;2023-01-31T08:02:57;101412.31;;;12.25;56.07
54556;BME280;57291;37.520;15.106;2023-01-31T08:05:45;101413.53;;;12.38;55.49
54556;BME280;57291;37.520;15.106;2023-01-31T08:08:13;101402.56;;;12.43;53.83
54556;BME280;57291;37.520;15.106;2023-01-31T08:10:40;101413.34;;;12.53;53.37
54556;BME280;57291;37.520;15.106;2023-01-31T08:13:07;101409.66;;;12.63;53.46
54556;BME280;57291;37.520;15.106;2023-01-31T08:15:37;101428.13;;;12.71;54.45
54556;BME280;57291;37.520;15.106;2023-01-31T08:18:05;101431.59;;;12.77;55.87
54556;BME280;57291;37.520;15.106;2023-01-31T08:20:33;101428.13;;;12.71;56.64
54556;BME280;57291;37.520;15.106;2023-01-31T08:23:00;101429.56;;;12.63;57.43
54556;BME280;57291;37.520;15.106;2023-01-31T08:25:27;101428.75;;;12.63;57.83
54556;BME280;57291;37.520;15.106;2023-01-31T08:27:56;101435.91;;;12.59;57.41
54556;BME280;57291;37.520;15.106;2023-01-31T08:30:24;101435.38;;;12.57;57.55
54556;BME280;57291;37.520;15.106;2023-01-31T08:32:51;101440.78;;;12.62;57.35
54556;BME280;57291;37.520;15.106;2023-01-31T08:35:18;101444.50;;;12.71;57.41
54556;BME280;57291;37.520;15.106;2023-01-31T08:37:46;101455.81;;;12.83;57.05
54556;BME280;57291;37.520;15.106;2023-01-31T08:40:14;101467.53;;;13.03;57.28
54556;BME280;57291;37.520;15.106;2023-01-31T08:42:41;101473.69;;;13.32;56.15
54556;BME280;57291;37.520;15.106;2023-01-31T08:45:09;101477.31;;;13.66;55.63
54556;BME280;57291;37.520;15.106;2023-01-31T08:47:37;101471.16;;;13.74;54.38
54556;BME280;57291;37.520;15.106;2023-01-31T08:50:06;101467.09;;;13.71;54.11
54556;BME280;57291;37.520;15.106;2023-01-31T08:52:52;101471.53;;;13.67;54.83
54556;BME280;57291;37.520;15.106;2023-01-31T08:55:20;101475.00;;;13.73;54.92
54556;BME280;57291;37.520;15.106;2023-01-31T08:57:48;101476.78;;;13.64;54.41
54556;BME280;57291;37.520;15.106;2023-01-31T09:00:25;101478.50;;;13.92;54.28
54556;BME280;57291;37.520;15.106;2023-01-31T09:02:58;101475.50;;;14.07;52.82
54556;BME280;57291;37.520;15.106;2023-01-31T09:05:27;101485.84;;;14.24;52.40
54556;BME280;57291;37.520;15.106;2023-01-31T09:07:54;101486.97;;;14.37;51.58
54556;BME280;57291;37.520;15.106;2023-01-31T09:10:22;101491.56;;;14.42;51.56
54556;BME280;57291;37.520;15.106;2023-01-31T09:12:50;101502.22;;;14.57;51.53
54556;BME280;57291;37.520;15.106;2023-01-31T09:15:17;101505.41;;;14.64;51.02
54556;BME280;57291;37.520;15.106;2023-01-31T09:17:45;101506.81;;;14.62;51.02
54556;BME280;57291;37.520;15.106;2023-01-31T09:20:12;101509.34;;;14.72;50.61
54556;BME280;57291;37.520;15.106;2023-01-31T09:22:39;101514.19;;;14.89;50.61
54556;BME280;57291;37.520;15.106;2023-01-31T09:25:07;101520.47;;;14.89;50.27
54556;BME280;57291;37.520;15.106;2023-01-31T09:27:35;101518.84;;;14.61;50.49
54556;BME280;57291;37.520;15.106;2023-01-31T09:30:08;101527.47;;;14.68;50.61
54556;BME280;57291;37.520;15.106;2023-01-31T09:32:35;101520.16;;;15.05;50.19
54556;BME280;57291;37.520;15.106;2023-01-31T09:35:04;101517.09;;;15.34;49.88
54556;BME280;57291;37.520;15.106;2023-01-31T09:37:31;101515.97;;;15.35;49.45
54556;BME280;57291;37.520;15.106;2023-01-31T09:39:59;101521.53;;;15.30;49.47
54556;BME280;57291;37.520;15.106;2023-01-31T09:42:36;101511.09;;;15.32;49.51
54556;BME280;57291;37.520;15.106;2023-01-31T09:47:43;101508.31;;;15.45;49.37
54556;BME280;57291;37.520;15.106;2023-01-31T09:50:22;101509.09;;;15.60;49.36
54556;BME280;57291;37.520;15.106;2023-01-31T09:52:56;101518.03;;;15.88;48.81
54556;BME280;57291;37.520;15.106;2023-01-31T09:56:08;101520.13;;;16.13;47.94
54556;BME280;57291;37.520;15.106;2023-01-31T10:01:44;101515.41;;;16.05;47.33
54556;BME280;57291;37.520;15.106;2023-01-31T10:06:57;101524.38;;;15.97;46.94
54556;BME280;57291;37.520;15.106;2023-01-31T10:09:48;101523.63;;;16.05;46.49
54556;BME280;57291;37.520;15.106;2023-01-31T10:12:25;101507.59;;;16.21;47.25
54556;BME280;57291;37.520;15.106;2023-01-31T10:14:57;101507.41;;;16.80;47.10
54556;BME280;57291;37.520;15.106;2023-01-31T10:17:40;101496.00;;;16.64;46.88
54556;BME280;57291;37.520;15.106;2023-01-31T10:20:38;101494.00;;;16.87;47.16
54556;BME280;57291;37.520;15.106;2023-01-31T10:26:00;101503.28;;;17.26;44.92
54556;BME280;57291;37.520;15.106;2023-01-31T10:31:33;101490.72;;;17.42;43.21
54556;BME280;57291;37.520;15.106;2023-01-31T10:34:09;101465.00;;;17.64;43.71
54556;BME280;57291;37.520;15.106;2023-01-31T10:36:59;101468.84;;;18.07;43.72
54556;BME280;57291;37.520;15.106;2023-01-31T10:39:32;101474.44;;;18.19;44.15
54556;BME280;57291;37.520;15.106;2023-01-31T10:44:43;101464.19;;;17.46;44.90
54556;BME280;57291;37.520;15.106;2023-01-31T10:47:14;101461.28;;;17.08;45.12
54556;BME280;57291;37.520;15.106;2023-01-31T10:49:47;101460.72;;;16.80;46.23
54556;BME280;57291;37.520;15.106;2023-01-31T10:52:44;101436.50;;;16.33;49.66
54556;BME280;57291;37.520;15.106;2023-01-31T10:58:12;101440.56;;;15.74;50.66
54556;BME280;57291;37.520;15.106;2023-01-31T11:00:41;101446.25;;;15.63;50.89
54556;BME280;57291;37.520;15.106;2023-01-31T11:03:12;101443.16;;;15.79;50.25
54556;BME280;57291;37.520;15.106;2023-01-31T11:05:54;101431.13;;;15.88;49.16
54556;BME280;57291;37.520;15.106;2023-01-31T11:08:34;101428.03;;;15.81;50.67
54556;BME280;57291;37.520;15.106;2023-01-31T11:11:11;101419.75;;;15.50;51.56
54556;BME280;57291;37.520;15.106;2023-01-31T11:13:39;101430.25;;;15.34;51.75
54556;BME280;57291;37.520;15.106;2023-01-31T11:16:09;101440.00;;;15.49;50.42
54556;BME280;57291;37.520;15.106;2023-01-31T11:18:48;101432.50;;;15.55;51.35
54556;BME280;57291;37.520;15.106;2023-01-31T11:21:20;101426.38;;;15.35;53.26
54556;BME280;57291;37.520;15.106;2023-01-31T11:23:49;101413.38;;;15.41;52.07
54556;BME280;57291;37.520;15.106;2023-01-31T11:26:33;101413.50;;;15.36;52.19
54556;BME280;57291;37.520;15.106;2023-01-31T11:29:30;101415.88;;;15.51;52.55
54556;BME280;57291;37.520;15.106;2023-01-31T11:31:59;101412.13;;;15.24;53.21
54556;BME280;57291;37.520;15.106;2023-01-31T11:34:29;101411.75;;;15.40;52.14
54556;BME280;57291;37.520;15.106;2023-01-31T11:37:14;101410.66;;;15.41;54.09
54556;BME280;57291;37.520;15.106;2023-01-31T11:39:55;101406.66;;;15.47;54.25
54556;BME280;57291;37.520;15.106;2023-01-31T11:42:23;101403.41;;;15.45;53.75
54556;BME280;57291;37.520;15.106;2023-01-31T11:45:15;101413.91;;;15.29;53.75
54556;BME280;57291;37.520;15.106;2023-01-31T11:47:46;101403.28;;;15.28;54.06
54556;BME280;57291;37.520;15.106;2023-01-31T11:50:25;101399.19;;;15.39;54.29
54556;BME280;57291;37.520;15.106;2023-01-31T11:53:01;101406.59;;;15.61;51.55
54556;BME280;57291;37.520;15.106;2023-01-31T11:55:37;101402.31;;;15.68;52.55
54556;BME280;57291;37.520;15.106;2023-01-31T11:58:34;101392.97;;;15.69;51.76
54556;BME280;57291;37.520;15.106;2023-01-31T12:03:35;101411.28;;;15.83;50.74
54556;BME280;57291;37.520;15.106;2023-01-31T12:06:09;101411.00;;;15.93;51.18
54556;BME280;57291;37.520;15.106;2023-01-31T12:08:38;101399.88;;;15.98;51.62
54556;BME280;57291;37.520;15.106;2023-01-31T12:13:51;101401.91;;;15.39;53.83
54556;BME280;57291;37.520;15.106;2023-01-31T12:16:23;101409.88;;;15.49;54.18
54556;BME280;57291;37.520;15.106;2023-01-31T12:38:24;101408.16;;;15.53;51.67
54556;BME280;57291;37.520;15.106;2023-01-31T12:41:16;101415.28;;;14.82;54.46
54556;BME280;57291;37.520;15.106;2023-01-31T12:44:22;101424.94;;;14.51;57.65
54556;BME280;57291;37.520;15.106;2023-01-31T12:50:00;101437.75;;;14.23;56.41
54556;BME280;57291;37.520;15.106;2023-01-31T12:52:55;101434.09;;;14.28;56.40
54556;BME280;57291;37.520;15.106;2023-01-31T12:55:31;101437.69;;;14.28;56.72
54556;BME280;57291;37.520;15.106;2023-01-31T12:58:22;101444.03;;;14.24;57.92
54556;BME280;57291;37.520;15.106;2023-01-31T13:01:06;101446.97;;;14.27;57.06
54556;BME280;57291;37.520;15.106;2023-01-31T13:06:44;101445.97;;;14.23;56.27
54556;BME280;57291;37.520;15.106;2023-01-31T13:09:31;101441.53;;;14.69;54.36
54556;BME280;57291;37.520;15.106;2023-01-31T13:12:05;101440.94;;;14.72;54.91
54556;BME280;57291;37.520;15.106;2023-01-31T13:14:39;101434.66;;;14.71;52.77
54556;BME280;57291;37.520;15.106;2023-01-31T13:17:13;101459.06;;;14.54;53.70
54556;BME280;57291;37.520;15.106;2023-01-31T13:19:48;101455.22;;;14.41;54.99
54556;BME280;57291;37.520;15.106;2023-01-31T13:22:25;101460.09;;;14.58;54.78
54556;BME280;57291;37.520;15.106;2023-01-31T13:27:43;101450.53;;;14.42;59.14
54556;BME280;57291;37.520;15.106;2023-01-31T13:30:34;101468.84;;;14.14;60.49
54556;BME280;57291;37.520;15.106;2023-01-31T13:33:16;101466.22;;;14.22;59.80
54556;BME280;57291;37.520;15.106;2023-01-31T13:35:46;101469.16;;;14.12;56.48
54556;BME280;57291;37.520;15.106;2023-01-31T13:38:17;101466.50;;;14.07;57.98
54556;BME280;57291;37.520;15.106;2023-01-31T13:40:50;101471.63;;;13.95;54.53
54556;BME280;57291;37.520;15.106;2023-01-31T13:43:18;101479.53;;;13.96;55.06
54556;BME280;57291;37.520;15.106;2023-01-31T13:54:42;101479.09;;;14.36;59.37
54556;BME280;57291;37.520;15.106;2023-01-31T13:56:48;101494.25;;;14.28;59.09
54556;BME280;57291;37.520;15.106;2023-01-31T13:59:21;101494.69;;;14.35;60.10
54556;BME280;57291;37.520;15.106;2023-01-31T14:01:50;101486.50;;;14.49;59.33
54556;BME280;57291;37.520;15.106;2023-01-31T14:09:29;101504.38;;;14.27;58.35
54556;BME280;57291;37.520;15.106;2023-01-31T14:12:25;101506.38;;;14.08;58.58
54556;BME280;57291;37.520;15.106;2023-01-31T14:14:48;101516.94;;;13.82;59.32
54556;BME280;57291;37.520;15.106;2023-01-31T14:47:32;101545.34;;;13.81;58.13
54556;BME280;57291;37.520;15.106;2023-01-31T14:50:28;101547.22;;;13.67;57.92
54556;BME280;57291;37.520;15.106;2023-01-31T14:56:12;101553.47;;;13.67;57.75
54556;BME280;57291;37.520;15.106;2023-01-31T14:58:45;101546.78;;;13.59;58.13
54556;BME280;57291;37.520;15.106;2023-01-31T15:01:17;101559.09;;;13.57;57.30
54556;BME280;57291;37.520;15.106;2023-01-31T15:03:52;101546.44;;;13.42;57.73
54556;BME280;57291;37.520;15.106;2023-01-31T15:06:30;101552.38;;;13.49;57.06
54556;BME280;57291;37.520;15.106;2023-01-31T15:11:52;101551.63;;;13.44;57.15
54556;BME280;57291;37.520;15.106;2023-01-31T15:14:42;101555.97;;;13.45;58.12
54556;BME280;57291;37.520;15.106;2023-01-31T15:17:24;101562.72;;;13.52;55.03
54556;BME280;57291;37.520;15.106;2023-01-31T15:20:12;101567.44;;;13.47;55.78
54556;BME280;57291;37.520;15.106;2023-01-31T15:22:41;101565.06;;;13.40;55.41
54556;BME280;57291;37.520;15.106;2023-01-31T15:25:31;101570.81;;;13.38;53.71
54556;BME280;57291;37.520;15.106;2023-01-31T15:28:00;101568.22;;;13.28;54.02
54556;BME280;57291;37.520;15.106;2023-01-31T15:30:29;101574.81;;;13.22;54.27
54556;BME280;57291;37.520;15.106;2023-01-31T15:33:12;101571.03;;;13.18;54.13
54556;BME280;57291;37.520;15.106;2023-01-31T15:41:39;101563.34;;;13.25;55.82